Time;durP1;ratioP1;P1;durP2;ratioP2;P2;SDS_P1;SDS_P2;PMS_P1;PMS_P2;Temp;Humidity;BMP_temperature;BMP_pressure;BME280_temperature;BME280_humidity;BME280_pressure;Samples;Min_cycle;Max_cycle;Signal;HPM_P1;HPM_P2
2024/04/18 00:01:44;;;;;;;8.10;4.40;;;;;;;11.46;56.85;99083.82;105673;1261;61391;-73
2024/04/18 00:04:11;;;;;;;9.70;4.50;;;;;;;11.48;57.02;99083.63;105592;1264;63725;-69
2024/04/18 00:06:39;;;;;;;7.60;2.00;;;;;;;11.49;57.06;99083.18;105838;1263;61104;-70
2024/04/18 00:09:06;;;;;;;7.40;4.30;;;;;;;11.50;56.95;99084.66;105462;1266;61433;-67
2024/04/18 00:11:34;;;;;;;6.70;2.20;;;;;;;11.51;56.98;99088.25;104787;1262;74574;-72
2024/04/18 00:14:11;;;;;;;7.70;4.80;;;;;;;11.50;56.87;99087.46;107615;1257;61873;-72
2024/04/18 00:16:38;;;;;;;8.50;4.90;;;;;;;11.49;57.02;99088.48;105743;1264;63703;-71
2024/04/18 00:19:15;;;;;;;6.10;1.90;;;;;;;11.54;57.12;99088.95;104742;1264;61243;-70
2024/04/18 00:21:58;;;;;;;8.60;4.50;;;;;;;11.61;57.20;99080.92;104652;1260;61180;-70
2024/04/18 00:24:27;;;;;;;8.60;4.80;;;;;;;11.66;57.30;99083.87;108724;1259;64448;-69
2024/04/18 00:26:55;;;;;;;8.50;4.40;;;;;;;11.72;57.38;99091.83;108712;1259;60085;-68
2024/04/18 00:29:35;;;;;;;5.10;1.70;;;;;;;11.80;57.53;99094.54;106077;1260;62522;-69
2024/04/18 00:32:09;;;;;;;10.30;5.00;;;;;;;11.86;57.53;99098.10;105045;1263;61372;-67
2024/04/18 00:34:37;;;;;;;8.10;5.30;;;;;;;11.88;57.47;99099.42;105171;1260;61245;-68
2024/04/18 00:37:05;;;;;;;8.90;5.80;;;;;;;11.90;57.47;99092.60;106199;1263;66898;-70
2024/04/18 00:39:51;;;;;;;8.80;5.00;;;;;;;11.90;57.80;99087.50;105715;1260;61598;-68
2024/04/18 00:42:37;;;;;;;7.30;2.30;;;;;;;11.95;57.98;99080.98;104762;1260;62511;-69
2024/04/18 00:45:05;;;;;;;10.30;4.90;;;;;;;12.00;57.85;99074.30;104855;1264;61297;-69
2024/04/18 00:47:47;;;;;;;10.50;2.00;;;;;;;12.03;57.75;99070.90;104954;1264;61336;-71
2024/04/18 00:50:16;;;;;;;7.30;4.40;;;;;;;12.04;57.87;99073.70;104976;1259;64524;-70
2024/04/18 00:52:44;;;;;;;8.30;5.40;;;;;;;12.05;58.07;99072.94;105113;1259;61229;-69
2024/04/18 00:55:27;;;;;;;8.00;5.20;;;;;;;12.02;58.00;99080.23;104824;1260;63868;-69
2024/04/18 00:58:10;;;;;;;9.30;5.50;;;;;;;11.97;58.00;99087.47;105245;1263;61294;-69
2024/04/18 01:00:41;;;;;;;8.00;4.70;;;;;;;11.92;58.13;99092.57;105062;1260;61372;-70
2024/04/18 01:03:28;;;;;;;5.20;2.10;;;;;;;11.88;58.29;99095.90;104734;1260;64979;-71
2024/04/18 01:06:08;;;;;;;6.80;4.60;;;;;;;11.89;58.23;99100.39;108634;1259;61466;-71
2024/04/18 01:09:08;;;;;;;8.50;4.70;;;;;;;11.96;58.33;99104.48;104553;1264;72460;-70
2024/04/18 01:11:35;;;;;;;7.50;4.90;;;;;;;11.99;58.52;99103.06;104647;1261;61369;-69
2024/04/18 01:14:10;;;;;;;8.00;4.50;;;;;;;12.01;58.65;99103.35;104670;1260;61248;-64
2024/04/18 01:16:56;;;;;;;9.90;4.70;;;;;;;12.04;58.74;99102.25;108796;1259;64488;-68
2024/04/18 01:19:24;;;;;;;7.70;4.50;;;;;;;12.04;58.98;99106.23;108739;1259;61396;-65
2024/04/18 01:21:51;;;;;;;6.10;2.50;;;;;;;12.05;58.87;99108.06;108775;1257;63852;-68
2024/04/18 01:24:19;;;;;;;7.40;4.80;;;;;;;12.05;58.89;99110.89;105647;1259;61211;-67
2024/04/18 01:26:47;;;;;;;7.80;5.00;;;;;;;12.04;59.05;99112.36;104982;1257;61470;-65
2024/04/18 01:29:15;;;;;;;7.30;4.10;;;;;;;12.06;59.06;99113.95;104782;1260;65722;-66
2024/04/18 01:32:01;;;;;;;5.20;2.00;;;;;;;12.09;59.12;99113.25;104826;1260;61391;-67
2024/04/18 01:34:28;;;;;;;7.30;4.20;;;;;;;12.14;59.19;99113.98;104696;1260;63776;-69
2024/04/18 01:37:14;;;;;;;8.90;4.80;;;;;;;12.20;59.23;99114.98;105064;1261;61263;-68
2024/04/18 01:39:43;;;;;;;7.30;2.70;;;;;;;12.22;59.28;99113.69;104615;1260;61270;-66
2024/04/18 01:42:11;;;;;;;13.30;4.90;;;;;;;12.22;59.32;99116.98;105145;1260;64497;-66
2024/04/18 01:44:42;;;;;;;8.10;4.80;;;;;;;12.20;59.43;99107.16;104649;1260;61377;-67
2024/04/18 01:47:28;;;;;;;9.50;5.40;;;;;;;12.17;59.68;99095.53;105395;1259;63743;-67
2024/04/18 01:50:08;;;;;;;7.60;4.70;;;;;;;12.14;59.69;99087.77;104856;1263;61247;-68
2024/04/18 01:52:36;;;;;;;10.00;2.70;;;;;;;12.14;59.62;99085.66;104841;1263;61346;-68
2024/04/18 01:55:05;;;;;;;9.00;5.20;;;;;;;12.16;59.46;99084.05;108768;1259;65777;-68
2024/04/18 01:57:36;;;;;;;9.20;4.90;;;;;;;12.15;59.48;99077.79;108803;1257;60098;-66
2024/04/18 02:00:44;;;;;;;9.40;4.90;;;;;;;12.14;59.63;99074.30;108684;1260;62517;-67
2024/04/18 02:03:12;;;;;;;7.90;4.70;;;;;;;12.09;59.72;99074.44;107515;1260;61259;-65
2024/04/18 02:05:40;;;;;;;5.90;2.20;;;;;;;12.03;59.83;99069.98;104847;1258;61797;-67
2024/04/18 02:08:13;;;;;;;7.90;4.80;;;;;;;11.96;59.88;99070.57;104827;1260;64436;-66
2024/04/18 02:10:44;;;;;;;8.60;4.70;;;;;;;11.87;60.03;99070.09;104934;1262;61559;-67
2024/04/18 02:13:34;;;;;;;;;;;;;;;11.80;60.11;99062.55;105714;1260;62452;-67
2024/04/18 02:16:03;;;;;;;6.40;2.50;;;;;;;11.74;60.55;99054.53;104876;1263;61687;-67
2024/04/18 02:18:49;;;;;;;7.90;4.60;;;;;;;11.70;60.83;99052.45;107284;1260;61454;-67
2024/04/18 02:21:16;;;;;;;6.50;1.90;;;;;;;11.66;61.23;99057.27;104786;1265;64467;-68
2024/04/18 02:23:51;;;;;;;9.50;4.70;;;;;;;11.62;61.69;99058.13;104725;1260;61972;-70
2024/04/18 02:26:18;;;;;;;5.70;2.50;;;;;;;11.56;61.80;99057.12;104815;1261;63775;-69
2024/04/18 02:28:45;;;;;;;8.70;4.70;;;;;;;11.53;61.95;99058.18;104815;1261;61371;-66
2024/04/18 02:31:16;;;;;;;7.90;4.50;;;;;;;11.54;61.95;99063.02;104809;1263;61500;-67
2024/04/18 02:33:50;;;;;;;4.50;1.50;;;;;;;11.52;62.14;99063.65;105383;1257;64682;-67
2024/04/18 02:36:17;;;;;;;8.00;4.50;;;;;;;11.54;62.30;99060.34;105003;1262;61393;-68
2024/04/18 02:38:45;;;;;;;7.90;4.40;;;;;;;11.58;62.49;99057.15;105023;1261;64270;-71
2024/04/18 02:41:12;;;;;;;4.90;2.70;;;;;;;11.58;62.63;99055.48;105716;1260;61367;-69
2024/04/18 02:43:50;;;;;;;11.80;4.40;;;;;;;11.57;62.59;99053.76;105599;1260;61297;-69
2024/04/18 02:46:17;;;;;;;8.00;5.00;;;;;;;11.54;62.69;99055.47;105193;1261;64528;-67
2024/04/18 02:49:03;;;;;;;6.60;2.70;;;;;;;11.49;62.75;99055.23;104821;1260;61372;-68
2024/04/18 02:51:31;;;;;;;9.00;4.40;;;;;;;11.52;62.83;99056.38;105350;1262;63140;-67
2024/04/18 02:54:33;;;;;;;5.90;2.90;;;;;;;11.60;62.78;99054.48;105405;1259;61339;-66
2024/04/18 02:57:01;;;;;;;7.50;4.20;;;;;;;11.66;62.86;99048.73;106201;1258;59527;-66
2024/04/18 02:59:28;;;;;;;7.60;4.60;;;;;;;11.69;62.73;99035.73;105413;1265;65738;-61
2024/04/18 03:01:56;;;;;;;4.30;1.80;;;;;;;11.70;62.60;99031.63;105906;1260;61429;-63
2024/04/18 03:04:24;;;;;;;7.20;4.60;;;;;;;11.70;62.56;99039.38;106293;1261;63749;-70
2024/04/18 03:06:51;;;;;;;6.40;2.50;;;;;;;11.70;62.70;99044.61;105354;1263;61441;-69
2024/04/18 03:09:18;;;;;;;7.50;4.30;;;;;;;11.74;62.58;99039.33;105513;1260;61126;-70
2024/04/18 03:11:55;;;;;;;8.10;4.30;;;;;;;11.77;62.49;99038.08;105614;1261;64470;-65
2024/04/18 03:14:40;;;;;;;8.30;2.50;;;;;;;11.79;62.46;99040.15;105614;1260;61376;-67
2024/04/18 03:17:08;;;;;;;7.50;4.50;;;;;;;11.80;62.60;99041.95;107238;1260;62559;-66
2024/04/18 03:19:54;;;;;;;8.10;5.10;;;;;;;11.81;62.79;99037.45;105598;1262;61302;-57
2024/04/18 03:22:25;;;;;;;7.70;5.40;;;;;;;11.76;62.81;99032.73;104649;1264;61253;-62
2024/04/18 03:25:01;;;;;;;6.60;2.50;;;;;;;11.72;62.78;99028.61;104466;1260;64469;-69
2024/04/18 03:27:29;;;;;;;9.00;4.80;;;;;;;11.71;62.74;99026.23;104656;1260;61373;-58
2024/04/18 03:29:56;;;;;;;7.10;4.60;;;;;;;11.71;62.71;99020.90;108526;1262;62550;-57
2024/04/18 03:32:36;;;;;;;4.60;1.90;;;;;;;11.72;62.82;99024.40;108607;1260;59642;-60
2024/04/18 03:35:04;;;;;;;7.60;4.80;;;;;;;11.71;63.05;99027.45;108669;1260;59737;-58
2024/04/18 03:37:37;;;;;;;7.70;4.80;;;;;;;11.67;63.24;99024.49;108656;1260;64446;-59
2024/04/18 03:40:24;;;;;;;7.90;5.50;;;;;;;11.66;63.38;99025.67;106899;1259;61648;-58
2024/04/18 03:43:00;;;;;;;9.60;5.00;;;;;;;11.68;63.38;99021.64;105174;1264;62543;-57
2024/04/18 03:45:28;;;;;;;8.60;5.10;;;;;;;11.69;63.40;99022.34;105227;1260;61165;-58
2024/04/18 03:48:17;;;;;;;5.60;2.20;;;;;;;11.67;63.58;99021.00;105145;1260;61344;-57
2024/04/18 03:50:45;;;;;;;11.00;5.50;;;;;;;11.63;63.73;99024.85;104759;1260;65697;-56
2024/04/18 03:53:19;;;;;;;5.50;2.90;;;;;;;11.60;63.88;99023.00;104793;1264;61360;-57
2024/04/18 03:55:47;;;;;;;8.10;5.30;;;;;;;11.63;64.05;99020.27;105752;1260;63806;-57
2024/04/18 03:58:14;;;;;;;8.30;5.10;;;;;;;11.66;63.99;99022.02;105201;1261;61314;-57
2024/04/18 04:00:48;;;;;;;8.70;5.30;;;;;;;11.69;64.21;99020.15;104780;1259;61851;-56
2024/04/18 04:03:16;;;;;;;9.30;6.10;;;;;;;11.69;64.33;99014.15;105134;1260;64459;-56
2024/04/18 04:05:43;;;;;;;8.60;3.10;;;;;;;11.66;64.28;99014.52;107834;1257;61423;-58
2024/04/18 04:08:11;;;;;;;10.10;6.00;;;;;;;11.61;64.33;99011.45;104807;1262;64335;-57
2024/04/18 04:10:39;;;;;;;10.40;5.90;;;;;;;11.60;64.45;99016.88;104612;1262;61485;-57
2024/04/18 04:13:07;;;;;;;8.70;5.70;;;;;;;11.60;64.42;99018.58;104910;1259;61470;-56
2024/04/18 04:15:41;;;;;;;5.30;2.40;;;;;;;11.61;64.28;99019.71;104878;1259;66829;-59
2024/04/18 04:18:09;;;;;;;8.90;6.20;;;;;;;11.63;64.37;99015.11;105051;1259;62052;-59
2024/04/18 04:20:41;;;;;;;9.50;6.10;;;;;;;11.63;64.47;99017.30;107514;1263;62507;-58
2024/04/18 04:23:08;;;;;;;11.90;6.20;;;;;;;11.60;64.61;99011.27;104781;1259;61306;-59
2024/04/18 04:25:54;;;;;;;8.10;2.80;;;;;;;11.57;64.55;99009.52;107354;1259;61230;-60
2024/04/18 04:28:22;;;;;;;9.40;6.40;;;;;;;11.54;64.40;99010.14;105566;1259;65763;-56
2024/04/18 04:30:49;;;;;;;7.80;3.30;;;;;;;11.53;64.62;99013.70;106450;1261;61271;-59
2024/04/18 04:33:17;;;;;;;8.70;6.10;;;;;;;11.56;64.75;99012.16;105295;1258;62979;-59
2024/04/18 04:35:45;;;;;;;8.30;6.30;;;;;;;11.58;65.01;99006.92;104838;1264;61425;-55
2024/04/18 04:38:12;;;;;;;7.40;3.30;;;;;;;11.58;64.97;99007.59;104667;1264;61257;-56
2024/04/18 04:40:40;;;;;;;11.30;6.30;;;;;;;11.54;64.83;99011.92;104900;1262;65798;-62
2024/04/18 04:43:07;;;;;;;13.10;3.50;;;;;;;11.50;64.94;99009.36;104944;1264;61603;-57
2024/04/18 04:45:35;;;;;;;10.00;6.60;;;;;;;11.49;64.69;99001.56;104599;1259;62448;-59
2024/04/18 04:48:06;;;;;;;8.40;5.90;;;;;;;11.47;64.67;98996.48;104647;1262;61362;-57
2024/04/18 04:50:58;;;;;;;8.80;5.70;;;;;;;11.43;64.80;98993.21;107978;1263;59716;-57
2024/04/18 04:53:31;;;;;;;6.10;3.10;;;;;;;11.41;65.06;98991.52;105445;1264;65676;-60
2024/04/18 04:55:58;;;;;;;8.20;5.80;;;;;;;11.46;64.97;98986.00;108736;1259;60095;-66
2024/04/18 04:58:26;;;;;;;7.70;3.10;;;;;;;11.53;64.77;98987.55;108603;1261;62467;-67
2024/04/18 05:00:54;;;;;;;10.00;6.00;;;;;;;11.58;64.84;98991.31;108815;1259;59220;-59
2024/04/18 05:03:37;;;;;;;8.60;6.10;;;;;;;11.56;64.68;98994.87;108796;1259;59093;-59
2024/04/18 05:19:48;;;;;;;10.90;5.80;;;;;;;11.63;65.06;98996.88;102852;1288;605029;-66
2024/04/18 05:22:35;;;;;;;;;;;;;;;12.19;63.00;98999.71;104417;1267;127140;-60
2024/04/18 05:25:02;;;;;;;8.50;6.20;;;;;;;12.11;62.92;98998.48;104166;1270;59801;-61
2024/04/18 05:27:30;;;;;;;8.60;6.20;;;;;;;12.00;63.18;99000.19;108396;1267;64697;-67
2024/04/18 05:32:45;;;;;;;6.30;3.10;;;;;;;11.85;63.50;99006.65;108397;1266;62498;-69
2024/04/18 05:35:13;;;;;;;9.00;6.20;;;;;;;11.84;63.64;99001.80;108305;1267;57826;-67
2024/04/18 05:37:40;;;;;;;8.60;6.30;;;;;;;11.83;63.83;99000.42;105686;1266;59750;-66
2024/04/18 05:40:08;;;;;;;10.20;6.70;;;;;;;11.81;64.03;98998.88;105221;1270;62838;-67
2024/04/18 05:42:36;;;;;;;8.70;6.20;;;;;;;11.79;64.11;99000.29;105307;1270;60110;-69
2024/04/18 05:45:09;;;;;;;5.60;2.40;;;;;;;11.77;64.42;98995.58;105171;1280;63667;-64
2024/04/18 05:47:55;;;;;;;11.00;5.60;;;;;;;11.78;64.33;98987.91;105265;1270;61730;-67
2024/04/18 05:50:23;;;;;;;8.50;5.30;;;;;;;11.81;64.32;98991.00;105242;1270;60489;-64
2024/04/18 05:52:51;;;;;;;8.20;5.70;;;;;;;11.87;64.30;98994.13;105307;1268;66119;-65
2024/04/18 05:55:21;;;;;;;6.70;2.60;;;;;;;11.90;64.15;98991.67;105301;1267;63572;-65
2024/04/18 05:57:49;;;;;;;8.90;5.50;;;;;;;11.89;64.26;98995.52;105251;1270;62533;-68
2024/04/18 06:00:37;;;;;;;10.80;6.40;;;;;;;11.87;64.32;99000.49;105382;1267;60491;-65
2024/04/18 06:03:05;;;;;;;12.30;5.60;;;;;;;11.86;64.18;98997.79;105223;1270;60449;-66
2024/04/18 06:05:33;;;;;;;9.50;5.50;;;;;;;11.89;64.24;99006.39;105302;1267;64964;-67
2024/04/18 06:08:13;;;;;;;10.60;5.70;;;;;;;11.96;64.13;99013.23;105200;1267;62479;-69
2024/04/18 06:10:43;;;;;;;6.10;3.10;;;;;;;12.01;64.10;99016.36;105254;1267;63914;-64
2024/04/18 06:13:18;;;;;;;8.80;5.70;;;;;;;12.03;63.99;99019.48;105116;1273;60536;-66
2024/04/18 06:15:47;;;;;;;6.60;2.40;;;;;;;12.02;63.90;99015.60;105161;1267;62263;-67
2024/04/18 06:18:15;;;;;;;8.70;5.00;;;;;;;11.98;63.41;99013.44;105436;1268;63749;-67
2024/04/18 06:20:46;;;;;;;5.00;2.20;;;;;;;11.94;63.30;99013.47;105215;1267;60511;-65
2024/04/18 06:23:13;;;;;;;8.20;4.70;;;;;;;11.93;62.93;99016.02;105226;1267;64408;-62
2024/04/18 06:25:41;;;;;;;8.50;4.40;;;;;;;11.92;62.96;99010.56;105150;1267;60467;-65
2024/04/18 06:28:10;;;;;;;7.00;3.00;;;;;;;11.88;62.99;99006.48;104968;1267;60578;-66
2024/04/18 06:30:39;;;;;;;7.40;4.20;;;;;;;11.82;63.17;99002.24;104890;1272;65047;-63
2024/04/18 06:33:10;;;;;;;8.20;4.60;;;;;;;11.74;63.24;98992.91;105899;1257;61547;-67
2024/04/18 06:35:38;;;;;;;7.40;4.20;;;;;;;11.70;63.59;98988.08;105819;1258;62542;-66
2024/04/18 06:38:06;;;;;;;5.20;2.30;;;;;;;11.67;63.62;98981.88;105861;1267;60563;-64
2024/04/18 06:40:33;;;;;;;7.10;3.80;;;;;;;11.61;63.87;98978.68;105735;1258;60597;-69
2024/04/18 06:43:01;;;;;;;7.40;3.90;;;;;;;11.52;64.05;98982.39;105773;1257;63725;-63
2024/04/18 06:45:29;;;;;;;4.70;1.90;;;;;;;11.42;64.24;98983.46;105346;1258;61561;-60
2024/04/18 06:47:57;;;;;;;8.40;3.50;;;;;;;11.38;64.29;98986.86;105751;1259;62587;-66
2024/04/18 06:50:26;;;;;;;9.80;3.60;;;;;;;11.40;64.55;98989.12;105823;1257;60575;-63
2024/04/18 06:52:53;;;;;;;5.00;1.40;;;;;;;11.47;64.85;98992.55;105859;1260;60533;-62
2024/04/18 06:55:24;;;;;;;6.10;3.30;;;;;;;11.51;64.81;98989.30;105791;1263;64951;-69
2024/04/18 06:57:51;;;;;;;5.10;2.90;;;;;;;11.50;64.55;98991.55;105841;1263;60450;-65
2024/04/18 07:00:19;;;;;;;5.90;2.80;;;;;;;11.44;64.45;98985.73;106074;1257;62602;-60
2024/04/18 07:02:46;;;;;;;5.60;1.70;;;;;;;11.41;64.46;98986.89;106567;1258;60437;-70
2024/04/18 07:05:33;;;;;;;5.20;1.70;;;;;;;11.43;64.40;98986.60;105817;1264;60488;-67
2024/04/18 07:08:19;;;;;;;6.80;2.30;;;;;;;11.46;64.02;98993.98;105818;1260;65005;-69
2024/04/18 07:10:47;;;;;;;6.10;2.60;;;;;;;11.46;63.66;99001.66;105897;1263;62109;-69
2024/04/18 07:13:30;;;;;;;3.40;1.00;;;;;;;11.43;63.67;99020.27;106045;1263;62694;-67
2024/04/18 07:16:20;;;;;;;5.90;2.60;;;;;;;11.37;63.45;99016.81;108230;1257;59070;-65
2024/04/18 07:18:53;;;;;;;3.80;1.50;;;;;;;11.36;62.96;99017.63;106083;1262;59482;-65
2024/04/18 07:21:21;;;;;;;5.70;2.10;;;;;;;11.39;63.33;99019.84;105858;1261;65329;-64
2024/04/18 07:23:49;;;;;;;7.20;2.20;;;;;;;11.44;63.28;99021.73;105702;1257;62023;-64
2024/04/18 07:26:35;;;;;;;3.00;1.20;;;;;;;11.47;63.74;99017.91;105844;1257;63812;-65
2024/04/18 07:29:03;;;;;;;5.50;2.90;;;;;;;11.49;63.87;99013.48;105864;1259;60514;-63
2024/04/18 07:31:31;;;;;;;3.30;1.30;;;;;;;11.46;63.67;99004.97;105828;1264;60406;-66
2024/04/18 07:34:14;;;;;;;5.10;2.20;;;;;;;11.48;63.65;98992.03;106131;1262;75954;-64
2024/04/18 07:36:48;;;;;;;4.40;1.50;;;;;;;11.49;63.89;98984.83;105944;1263;60450;-65
2024/04/18 07:39:16;;;;;;;5.80;2.60;;;;;;;11.51;64.09;98986.36;105994;1263;62631;-67
2024/04/18 07:41:44;;;;;;;4.30;1.20;;;;;;;11.49;64.20;98985.91;105977;1262;60564;-65
2024/04/18 07:44:11;;;;;;;5.60;2.50;;;;;;;11.49;64.33;98982.03;105790;1257;60534;-67
2024/04/18 07:46:39;;;;;;;6.40;2.00;;;;;;;11.52;64.55;98979.29;105813;1263;65017;-65
2024/04/18 07:49:07;;;;;;;4.30;1.40;;;;;;;11.54;63.78;98984.50;105537;1264;69590;-65
2024/04/18 07:51:35;;;;;;;6.00;2.40;;;;;;;11.48;63.63;98982.88;105492;1261;62540;-66
2024/04/18 07:54:03;;;;;;;4.60;1.80;;;;;;;11.41;63.75;98986.56;105754;1263;60645;-70
2024/04/18 07:56:31;;;;;;;5.20;2.10;;;;;;;11.32;63.82;98991.33;105704;1257;60457;-66
2024/04/18 07:58:59;;;;;;;5.00;2.30;;;;;;;11.31;63.82;98990.89;105971;1258;65075;-69
2024/04/18 08:01:27;;;;;;;6.10;2.30;;;;;;;11.33;63.95;98984.97;105772;1257;71292;-67
2024/04/18 08:03:57;;;;;;;4.30;1.20;;;;;;;11.33;64.08;98977.23;106105;1260;62600;-65
2024/04/18 08:06:44;;;;;;;5.00;2.50;;;;;;;11.31;64.18;98979.02;106002;1260;60502;-66
2024/04/18 08:09:17;;;;;;;3.40;1.30;;;;;;;11.29;64.14;98981.63;105923;1260;60566;-67
2024/04/18 08:11:50;;;;;;;5.40;2.00;;;;;;;11.29;63.85;98978.84;105731;1257;65152;-67
2024/04/18 08:14:20;;;;;;;5.30;2.10;;;;;;;11.29;63.74;98972.84;105945;1262;60453;-67
2024/04/18 08:16:54;;;;;;;2.10;0.60;;;;;;;11.26;63.99;98977.61;105713;1259;63838;-67
2024/04/18 08:19:21;;;;;;;5.20;2.50;;;;;;;11.22;64.13;98979.22;105801;1262;60399;-67
2024/04/18 08:21:49;;;;;;;1.90;0.60;;;;;;;11.21;64.13;98980.11;105804;1257;60542;-70
2024/04/18 08:24:27;;;;;;;7.40;2.50;;;;;;;11.22;64.16;98973.60;105628;1264;76282;-68
2024/04/18 08:27:08;;;;;;;4.90;2.30;;;;;;;11.21;64.25;98975.79;105791;1258;61768;-68
2024/04/18 08:29:36;;;;;;;3.70;0.80;;;;;;;11.17;64.43;98971.40;105811;1257;73907;-69
2024/04/18 08:32:04;;;;;;;4.40;2.00;;;;;;;11.12;64.77;98970.27;105935;1258;60975;-65
2024/04/18 08:34:31;;;;;;;4.00;1.20;;;;;;;11.10;64.58;98965.23;105851;1262;60473;-67
2024/04/18 08:37:03;;;;;;;5.30;2.60;;;;;;;11.09;64.54;98961.12;105890;1257;76400;-68
2024/04/18 08:39:31;;;;;;;4.30;1.60;;;;;;;11.06;64.96;98957.98;105669;1264;71851;-69
2024/04/18 08:41:58;;;;;;;6.40;2.30;;;;;;;11.04;65.25;98958.90;105913;1262;64914;-68
2024/04/18 08:44:27;;;;;;;2.90;1.20;;;;;;;10.98;65.41;98954.02;105711;1257;60482;-67
2024/04/18 08:46:55;;;;;;;4.80;2.30;;;;;;;10.96;65.15;98947.13;105976;1257;60677;-69
2024/04/18 08:49:23;;;;;;;3.60;1.30;;;;;;;10.96;64.85;98940.85;105959;1260;67299;-68
2024/04/18 08:51:51;;;;;;;5.20;2.10;;;;;;;10.95;64.46;98938.69;105791;1260;60399;-69
2024/04/18 08:54:18;;;;;;;4.70;2.10;;;;;;;10.94;64.63;98937.30;104911;1260;74933;-58
2024/04/18 08:56:47;;;;;;;3.30;1.20;;;;;;;10.92;65.07;98934.10;105476;1257;60322;-71
2024/04/18 08:59:16;;;;;;;4.90;2.00;;;;;;;10.97;64.86;98933.78;105736;1257;60543;-68
2024/04/18 09:01:44;;;;;;;7.20;2.50;;;;;;;11.01;64.77;98931.77;106015;1258;65116;-68
2024/04/18 09:04:12;;;;;;;3.00;0.80;;;;;;;11.02;64.84;98922.55;105608;1260;63481;-69
2024/04/18 09:06:39;;;;;;;5.90;2.10;;;;;;;11.00;64.69;98919.84;105763;1260;75269;-68
2024/04/18 09:09:13;;;;;;;4.10;1.30;;;;;;;11.00;64.90;98918.04;106033;1260;60440;-68
2024/04/18 09:11:41;;;;;;;31.70;15.20;;;;;;;11.06;64.67;98916.70;105877;1259;60875;-66
2024/04/18 09:14:08;;;;;;;6.80;2.40;;;;;;;11.11;64.60;98919.49;106031;1258;65960;-65
2024/04/18 09:16:37;;;;;;;6.10;2.60;;;;;;;11.13;64.85;98909.84;105577;1260;72911;-68
2024/04/18 09:19:05;;;;;;;4.10;1.50;;;;;;;11.15;64.88;98905.77;105591;1263;74477;-66
2024/04/18 09:21:34;;;;;;;5.60;2.80;;;;;;;11.10;64.89;98903.80;105817;1263;60539;-64
2024/04/18 09:24:04;;;;;;;6.90;1.80;;;;;;;11.09;65.00;98909.02;105732;1260;60547;-68
2024/04/18 09:26:32;;;;;;;5.60;2.70;;;;;;;11.08;65.09;98905.64;105640;1258;75949;-65
2024/04/18 09:29:01;;;;;;;5.50;2.50;;;;;;;11.03;65.24;98905.11;105781;1257;73100;-64
2024/04/18 09:31:29;;;;;;;5.60;1.40;;;;;;;10.95;65.14;98894.63;105972;1261;74614;-65
2024/04/18 09:34:10;;;;;;;6.80;2.50;;;;;;;10.89;65.32;98885.01;105901;1258;61263;-64
2024/04/18 09:36:39;;;;;;;4.90;1.60;;;;;;;10.88;65.46;98884.41;105360;1258;61359;-68
2024/04/18 09:39:13;;;;;;;6.00;2.60;;;;;;;10.89;65.63;98883.96;105997;1258;74894;-70
2024/04/18 09:41:48;;;;;;;5.70;1.60;;;;;;;10.89;65.91;98880.26;105731;1264;72230;-68
2024/04/18 09:44:23;;;;;;;5.70;2.30;;;;;;;10.86;66.05;98880.72;105978;1257;76750;-70
2024/04/18 09:46:54;;;;;;;5.60;1.50;;;;;;;10.89;66.03;98880.02;106200;1257;61387;-68
2024/04/18 09:49:21;;;;;;;7.10;2.30;;;;;;;10.93;66.16;98877.55;106097;1258;61217;-65
2024/04/18 09:51:49;;;;;;;5.40;1.10;;;;;;;10.98;66.22;98876.31;105919;1257;76900;-66
2024/04/18 09:54:16;;;;;;;3.40;1.10;;;;;;;10.99;66.33;98871.48;106010;1258;61262;-61
2024/04/18 09:56:46;;;;;;;6.00;2.60;;;;;;;10.95;66.53;98869.56;105968;1259;74834;-61
2024/04/18 09:59:15;;;;;;;3.60;1.10;;;;;;;10.97;66.67;98867.95;104884;1257;61289;-63
2024/04/18 10:01:42;;;;;;;5.30;2.20;;;;;;;11.02;66.66;98860.13;107660;1256;61325;-63
2024/04/18 10:04:10;;;;;;;3.50;1.20;;;;;;;10.97;66.63;98857.06;105695;1257;65873;-62
2024/04/18 10:06:39;;;;;;;5.90;2.40;;;;;;;10.93;66.59;98864.04;105515;1256;72471;-61
2024/04/18 10:09:07;;;;;;;4.30;1.00;;;;;;;10.88;66.80;98858.60;105210;1257;66137;-63
2024/04/18 10:11:34;;;;;;;4.20;2.00;;;;;;;10.88;66.97;98853.50;105342;1256;61487;-64
2024/04/18 10:14:02;;;;;;;1.20;0.50;;;;;;;10.91;67.21;98850.41;105196;1262;62358;-60
2024/04/18 10:16:30;;;;;;;6.60;2.00;;;;;;;10.96;67.19;98849.46;105222;1260;64591;-63
2024/04/18 10:19:08;;;;;;;5.30;0.80;;;;;;;11.00;67.07;98845.71;105697;1257;61905;-61
2024/04/18 10:21:36;;;;;;;5.60;1.90;;;;;;;11.02;67.10;98839.73;105170;1257;66135;-60
2024/04/18 10:24:23;;;;;;;2.80;0.90;;;;;;;11.02;66.96;98838.75;104976;1257;61516;-63
2024/04/18 10:26:59;;;;;;;5.10;2.30;;;;;;;11.00;66.69;98840.73;105730;1259;62064;-63
2024/04/18 10:29:27;;;;;;;4.50;1.10;;;;;;;10.99;66.54;98842.49;105647;1257;65844;-61
2024/04/18 10:31:56;;;;;;;4.40;1.70;;;;;;;11.02;66.42;98843.94;105653;1257;61147;-61
2024/04/18 10:34:26;;;;;;;4.50;2.20;;;;;;;11.05;66.63;98848.92;105771;1257;65827;-60
2024/04/18 10:36:56;;;;;;;5.30;2.20;;;;;;;11.07;66.92;98840.98;105117;1257;61508;-61
2024/04/18 10:39:33;;;;;;;7.70;1.30;;;;;;;11.07;66.85;98823.71;105263;1257;61385;-60
2024/04/18 10:42:01;;;;;;;4.80;1.80;;;;;;;11.08;66.47;98811.21;107341;1256;64656;-61
2024/04/18 10:44:29;;;;;;;3.20;0.80;;;;;;;11.10;66.15;98807.46;106456;1257;71452;-66
2024/04/18 10:46:57;;;;;;;5.20;1.90;;;;;;;11.09;66.34;98819.38;106213;1255;74935;-67
2024/04/18 10:49:24;;;;;;;4.00;1.60;;;;;;;11.06;66.32;98838.25;105910;1256;61206;-68
2024/04/18 10:51:52;;;;;;;2.20;0.70;;;;;;;11.05;66.52;98843.78;106136;1257;61603;-70
2024/04/18 10:54:19;;;;;;;4.00;1.80;;;;;;;11.08;66.38;98852.80;105968;1256;68556;-67
2024/04/18 10:56:47;;;;;;;8.10;2.20;;;;;;;11.11;66.19;98859.55;105896;1259;61213;-68
2024/04/18 10:59:15;;;;;;;5.30;2.40;;;;;;;11.12;66.30;98864.61;105912;1257;74926;-64
2024/04/18 11:01:42;;;;;;;1.70;0.60;;;;;;;11.10;66.47;98866.59;106057;1256;61291;-66
2024/04/18 11:04:10;;;;;;;3.90;1.70;;;;;;;11.09;66.32;98861.75;106176;1256;61234;-63
2024/04/18 11:06:40;;;;;;;4.40;1.80;;;;;;;11.10;66.15;98854.71;106287;1256;64493;-66
2024/04/18 11:09:08;;;;;;;3.10;1.00;;;;;;;11.12;66.30;98841.13;106077;1257;72239;-66
2024/04/18 11:11:38;;;;;;;4.70;1.90;;;;;;;11.12;66.26;98835.14;106207;1258;62605;-64
2024/04/18 11:14:05;;;;;;;3.10;1.20;;;;;;;11.07;66.16;98841.98;106162;1257;61369;-66
2024/04/18 11:16:36;;;;;;;5.90;2.50;;;;;;;11.08;66.39;98839.05;106029;1262;61147;-68
2024/04/18 11:19:04;;;;;;;3.70;1.20;;;;;;;11.17;66.38;98836.38;106165;1260;68598;-68
2024/04/18 11:21:34;;;;;;;6.10;2.10;;;;;;;11.22;66.22;98835.73;106045;1257;61187;-65
2024/04/18 11:24:05;;;;;;;5.30;3.20;;;;;;;11.20;66.33;98829.10;106023;1255;72775;-65
2024/04/18 11:26:32;;;;;;;5.60;3.20;;;;;;;11.12;66.05;98827.95;106047;1257;65828;-65
2024/04/18 11:29:01;;;;;;;4.00;1.30;;;;;;;11.09;66.00;98820.36;106331;1255;61267;-66
2024/04/18 11:31:28;;;;;;;6.50;3.50;;;;;;;11.08;65.87;98821.55;106448;1254;66804;-70
2024/04/18 11:33:56;;;;;;;4.20;1.90;;;;;;;11.08;65.94;98828.88;106227;1257;61224;-67
2024/04/18 11:36:24;;;;;;;7.40;4.10;;;;;;;11.12;66.12;98834.11;106268;1254;66025;-63
2024/04/18 11:38:52;;;;;;;5.10;1.80;;;;;;;11.13;66.31;98836.98;106290;1255;59751;-68
2024/04/18 11:41:19;;;;;;;5.20;3.00;;;;;;;11.14;66.39;98834.05;106354;1257;62238;-65
2024/04/18 11:43:47;;;;;;;5.80;3.40;;;;;;;11.13;66.14;98834.38;106142;1254;66853;-66
2024/04/18 11:46:14;;;;;;;5.50;1.50;;;;;;;11.12;65.66;98835.16;106078;1254;64125;-69
2024/04/18 11:48:42;;;;;;;7.10;3.90;;;;;;;11.12;65.84;98834.48;106228;1254;65929;-66
2024/04/18 11:51:10;;;;;;;7.60;3.50;;;;;;;11.11;66.13;98833.73;106242;1257;61238;-66
2024/04/18 11:53:37;;;;;;;6.70;1.50;;;;;;;11.14;66.31;98830.20;106246;1259;59452;-68
2024/04/18 11:56:05;;;;;;;6.10;3.10;;;;;;;11.19;66.10;98825.36;105691;1255;66932;-65
2024/04/18 11:58:32;;;;;;;4.80;2.00;;;;;;;11.22;66.09;98822.89;106341;1256;62044;-68
2024/04/18 12:01:00;;;;;;;6.00;2.60;;;;;;;11.23;66.26;98825.39;106139;1254;64926;-65